sensor_id;sensor_type;location;lat;lon;timestamp;P1;durP1;ratioP1;P2;durP2;ratioP2
31298;SDS011;17927;52.350;13.402;2022-09-09T00:04:45;2.97;;;2.88;;
31298;SDS011;17927;52.350;13.402;2022-09-09T00:07:25;4.25;;;3.28;;
31298;SDS011;17927;52.350;13.402;2022-09-09T00:15:43;3.38;;;3.17;;
31298;SDS011;17927;52.350;13.402;2022-09-09T00:20:37;2.90;;;2.70;;
31298;SDS011;17927;52.350;13.402;2022-09-09T00:23:37;3.60;;;3.30;;
31298;SDS011;17927;52.350;13.402;2022-09-09T00:26:19;3.42;;;2.80;;
31298;SDS011;17927;52.350;13.402;2022-09-09T00:31:50;3.55;;;3.25;;
31298;SDS011;17927;52.350;13.402;2022-09-09T00:34:21;2.70;;;2.60;;
31298;SDS011;17927;52.350;13.402;2022-09-09T00:36:50;3.13;;;2.95;;
31298;SDS011;17927;52.350;13.402;2022-09-09T00:39:39;3.63;;;3.33;;
31298;SDS011;17927;52.350;13.402;2022-09-09T00:42:14;4.97;;;3.53;;
31298;SDS011;17927;52.350;13.402;2022-09-09T00:47:50;3.70;;;3.50;;
31298;SDS011;17927;52.350;13.402;2022-09-09T00:50:29;4.55;;;2.95;;
31298;SDS011;17927;52.350;13.402;2022-09-09T00:56:09;3.10;;;2.90;;
31298;SDS011;17927;52.350;13.402;2022-09-09T00:58:49;2.95;;;2.75;;
31298;SDS011;17927;52.350;13.402;2022-09-09T01:01:21;3.38;;;3.03;;
31298;SDS011;17927;52.350;13.402;2022-09-09T01:03:47;4.15;;;3.78;;
31298;SDS011;17927;52.350;13.402;2022-09-09T01:06:22;4.55;;;3.70;;
31298;SDS011;17927;52.350;13.402;2022-09-09T01:14:43;2.92;;;2.78;;
31298;SDS011;17927;52.350;13.402;2022-09-09T01:22:18;3.70;;;3.50;;
31298;SDS011;17927;52.350;13.402;2022-09-09T01:27:44;5.20;;;3.70;;
31298;SDS011;17927;52.350;13.402;2022-09-09T01:30:14;3.90;;;3.22;;
31298;SDS011;17927;52.350;13.402;2022-09-09T01:32:46;3.53;;;3.33;;
31298;SDS011;17927;52.350;13.402;2022-09-09T01:37:55;3.80;;;3.50;;
31298;SDS011;17927;52.350;13.402;2022-09-09T01:40:20;3.72;;;3.53;;
31298;SDS011;17927;52.350;13.402;2022-09-09T01:42:46;3.67;;;3.38;;
31298;SDS011;17927;52.350;13.402;2022-09-09T01:45:11;3.83;;;3.28;;
31298;SDS011;17927;52.350;13.402;2022-09-09T01:47:36;4.28;;;3.47;;
31298;SDS011;17927;52.350;13.402;2022-09-09T01:50:02;3.70;;;3.50;;
31298;SDS011;17927;52.350;13.402;2022-09-09T01:52:28;4.22;;;3.90;;
31298;SDS011;17927;52.350;13.402;2022-09-09T01:54:55;5.85;;;3.65;;
31298;SDS011;17927;52.350;13.402;2022-09-09T01:57:23;4.80;;;3.90;;
31298;SDS011;17927;52.350;13.402;2022-09-09T01:59:54;4.65;;;4.05;;
31298;SDS011;17927;52.350;13.402;2022-09-09T02:05:07;4.10;;;3.80;;
31298;SDS011;17927;52.350;13.402;2022-09-09T02:07:41;3.78;;;3.58;;
31298;SDS011;17927;52.350;13.402;2022-09-09T02:10:13;4.35;;;4.07;;
31298;SDS011;17927;52.350;13.402;2022-09-09T02:12:48;3.75;;;3.47;;
31298;SDS011;17927;52.350;13.402;2022-09-09T02:15:29;3.53;;;3.33;;
31298;SDS011;17927;52.350;13.402;2022-09-09T02:18:00;5.03;;;3.72;;
31298;SDS011;17927;52.350;13.402;2022-09-09T02:20:30;3.90;;;3.70;;
31298;SDS011;17927;52.350;13.402;2022-09-09T02:22:58;5.22;;;3.33;;
31298;SDS011;17927;52.350;13.402;2022-09-09T02:25:25;3.45;;;3.20;;
31298;SDS011;17927;52.350;13.402;2022-09-09T02:27:53;4.00;;;3.70;;
31298;SDS011;17927;52.350;13.402;2022-09-09T02:30:19;3.58;;;3.38;;
31298;SDS011;17927;52.350;13.402;2022-09-09T02:32:45;3.67;;;3.47;;
31298;SDS011;17927;52.350;13.402;2022-09-09T02:35:14;4.53;;;3.20;;
31298;SDS011;17927;52.350;13.402;2022-09-09T02:37:42;3.83;;;3.53;;
31298;SDS011;17927;52.350;13.402;2022-09-09T02:40:11;3.78;;;3.38;;
31298;SDS011;17927;52.350;13.402;2022-09-09T02:42:40;3.78;;;3.47;;
31298;SDS011;17927;52.350;13.402;2022-09-09T02:45:11;3.38;;;3.17;;
31298;SDS011;17927;52.350;13.402;2022-09-09T02:50:39;3.22;;;3.03;;
31298;SDS011;17927;52.350;13.402;2022-09-09T02:53:18;3.30;;;3.10;;
31298;SDS011;17927;52.350;13.402;2022-09-09T02:55:48;3.50;;;3.30;;
31298;SDS011;17927;52.350;13.402;2022-09-09T02:58:19;3.70;;;3.50;;
31298;SDS011;17927;52.350;13.402;2022-09-09T03:00:45;3.50;;;3.30;;
31298;SDS011;17927;52.350;13.402;2022-09-09T03:03:12;3.50;;;3.30;;
31298;SDS011;17927;52.350;13.402;2022-09-09T03:05:38;13.98;;;12.52;;
31298;SDS011;17927;52.350;13.402;2022-09-09T03:08:03;6.18;;;5.78;;
31298;SDS011;17927;52.350;13.402;2022-09-09T03:10:30;3.50;;;3.20;;
31298;SDS011;17927;52.350;13.402;2022-09-09T03:12:56;3.50;;;3.20;;
31298;SDS011;17927;52.350;13.402;2022-09-09T03:15:21;3.95;;;3.65;;
31298;SDS011;17927;52.350;13.402;2022-09-09T03:17:46;5.40;;;5.00;;
31298;SDS011;17927;52.350;13.402;2022-09-09T03:20:12;5.05;;;4.57;;
31298;SDS011;17927;52.350;13.402;2022-09-09T03:22:37;4.22;;;3.38;;
31298;SDS011;17927;52.350;13.402;2022-09-09T03:25:03;8.55;;;7.80;;
31298;SDS011;17927;52.350;13.402;2022-09-09T03:27:29;3.92;;;3.55;;
31298;SDS011;17927;52.350;13.402;2022-09-09T03:29:54;6.95;;;3.60;;
31298;SDS011;17927;52.350;13.402;2022-09-09T03:32:20;4.45;;;4.13;;
31298;SDS011;17927;52.350;13.402;2022-09-09T03:34:47;4.55;;;3.45;;
31298;SDS011;17927;52.350;13.402;2022-09-09T03:37:14;4.32;;;3.03;;
31298;SDS011;17927;52.350;13.402;2022-09-09T03:39:41;3.97;;;3.67;;
31298;SDS011;17927;52.350;13.402;2022-09-09T03:42:06;5.25;;;3.20;;
31298;SDS011;17927;52.350;13.402;2022-09-09T03:44:31;2.97;;;2.78;;
31298;SDS011;17927;52.350;13.402;2022-09-09T03:46:57;3.63;;;2.95;;
31298;SDS011;17927;52.350;13.402;2022-09-09T03:49:24;2.63;;;2.53;;
31298;SDS011;17927;52.350;13.402;2022-09-09T03:51:51;6.30;;;2.92;;
31298;SDS011;17927;52.350;13.402;2022-09-09T03:54:16;2.40;;;2.25;;
31298;SDS011;17927;52.350;13.402;2022-09-09T03:56:41;3.80;;;2.60;;
31298;SDS011;17927;52.350;13.402;2022-09-09T03:59:07;2.85;;;2.65;;
31298;SDS011;17927;52.350;13.402;2022-09-09T04:01:33;3.10;;;2.83;;
31298;SDS011;17927;52.350;13.402;2022-09-09T04:03:59;3.33;;;3.10;;
31298;SDS011;17927;52.350;13.402;2022-09-09T04:06:24;3.20;;;2.97;;
31298;SDS011;17927;52.350;13.402;2022-09-09T04:08:50;3.08;;;2.78;;
31298;SDS011;17927;52.350;13.402;2022-09-09T04:11:17;3.25;;;2.95;;
31298;SDS011;17927;52.350;13.402;2022-09-09T04:13:43;3.10;;;2.90;;
31298;SDS011;17927;52.350;13.402;2022-09-09T04:16:09;5.72;;;2.78;;
31298;SDS011;17927;52.350;13.402;2022-09-09T04:18:38;2.45;;;2.35;;
31298;SDS011;17927;52.350;13.402;2022-09-09T04:21:03;2.47;;;2.33;;
31298;SDS011;17927;52.350;13.402;2022-09-09T04:23:30;2.42;;;2.33;;
31298;SDS011;17927;52.350;13.402;2022-09-09T04:25:56;2.78;;;2.35;;
31298;SDS011;17927;52.350;13.402;2022-09-09T04:28:23;4.22;;;2.63;;
31298;SDS011;17927;52.350;13.402;2022-09-09T04:30:50;2.83;;;2.63;;
31298;SDS011;17927;52.350;13.402;2022-09-09T04:33:16;9.57;;;2.95;;
31298;SDS011;17927;52.350;13.402;2022-09-09T04:35:45;3.08;;;2.40;;
31298;SDS011;17927;52.350;13.402;2022-09-09T04:38:12;2.47;;;2.10;;
31298;SDS011;17927;52.350;13.402;2022-09-09T04:40:37;2.80;;;2.45;;
31298;SDS011;17927;52.350;13.402;2022-09-09T04:43:05;3.75;;;2.65;;
31298;SDS011;17927;52.350;13.402;2022-09-09T04:45:30;3.03;;;2.20;;
31298;SDS011;17927;52.350;13.402;2022-09-09T04:47:56;3.33;;;2.47;;
31298;SDS011;17927;52.350;13.402;2022-09-09T04:50:21;3.90;;;2.50;;
31298;SDS011;17927;52.350;13.402;2022-09-09T04:52:46;4.82;;;2.30;;
31298;SDS011;17927;52.350;13.402;2022-09-09T04:55:11;5.38;;;2.63;;
31298;SDS011;17927;52.350;13.402;2022-09-09T04:57:38;3.05;;;2.38;;
31298;SDS011;17927;52.350;13.402;2022-09-09T05:00:03;2.80;;;2.35;;
31298;SDS011;17927;52.350;13.402;2022-09-09T05:02:29;5.20;;;2.65;;
31298;SDS011;17927;52.350;13.402;2022-09-09T05:04:55;4.72;;;2.22;;
31298;SDS011;17927;52.350;13.402;2022-09-09T05:07:21;2.63;;;2.42;;
31298;SDS011;17927;52.350;13.402;2022-09-09T05:09:46;2.72;;;2.42;;
31298;SDS011;17927;52.350;13.402;2022-09-09T05:12:13;3.97;;;2.53;;
31298;SDS011;17927;52.350;13.402;2022-09-09T05:14:38;2.70;;;2.25;;
31298;SDS011;17927;52.350;13.402;2022-09-09T05:17:03;3.38;;;2.28;;
31298;SDS011;17927;52.350;13.402;2022-09-09T05:19:29;8.00;;;3.03;;
31298;SDS011;17927;52.350;13.402;2022-09-09T05:21:56;2.78;;;2.35;;
31298;SDS011;17927;52.350;13.402;2022-09-09T05:24:21;3.22;;;2.47;;
31298;SDS011;17927;52.350;13.402;2022-09-09T05:26:48;5.03;;;2.38;;
31298;SDS011;17927;52.350;13.402;2022-09-09T05:29:13;2.67;;;2.42;;
31298;SDS011;17927;52.350;13.402;2022-09-09T05:31:38;3.13;;;2.10;;
31298;SDS011;17927;52.350;13.402;2022-09-09T05:34:04;2.10;;;1.90;;
31298;SDS011;17927;52.350;13.402;2022-09-09T05:36:29;6.75;;;2.75;;
31298;SDS011;17927;52.350;13.402;2022-09-09T05:38:54;2.65;;;2.00;;
31298;SDS011;17927;52.350;13.402;2022-09-09T05:41:20;3.55;;;1.75;;
31298;SDS011;17927;52.350;13.402;2022-09-09T05:43:46;3.20;;;1.90;;
31298;SDS011;17927;52.350;13.402;2022-09-09T05:46:15;1.98;;;1.88;;
31298;SDS011;17927;52.350;13.402;2022-09-09T05:48:47;2.95;;;1.80;;
31298;SDS011;17927;52.350;13.402;2022-09-09T05:51:16;2.28;;;1.90;;
31298;SDS011;17927;52.350;13.402;2022-09-09T05:53:43;6.72;;;1.63;;
31298;SDS011;17927;52.350;13.402;2022-09-09T05:56:13;2.00;;;1.58;;
31298;SDS011;17927;52.350;13.402;2022-09-09T05:58:40;4.93;;;1.50;;
31298;SDS011;17927;52.350;13.402;2022-09-09T06:01:06;2.00;;;1.58;;
31298;SDS011;17927;52.350;13.402;2022-09-09T06:03:36;2.22;;;1.70;;
31298;SDS011;17927;52.350;13.402;2022-09-09T06:06:05;2.97;;;1.67;;
31298;SDS011;17927;52.350;13.402;2022-09-09T06:08:35;1.88;;;1.70;;
31298;SDS011;17927;52.350;13.402;2022-09-09T06:11:03;2.58;;;1.80;;
31298;SDS011;17927;52.350;13.402;2022-09-09T06:13:33;2.40;;;1.60;;
31298;SDS011;17927;52.350;13.402;2022-09-09T06:16:02;1.85;;;1.40;;
31298;SDS011;17927;52.350;13.402;2022-09-09T06:18:27;1.67;;;1.33;;
31298;SDS011;17927;52.350;13.402;2022-09-09T06:20:56;4.93;;;1.60;;
31298;SDS011;17927;52.350;13.402;2022-09-09T06:23:23;2.30;;;1.60;;
31298;SDS011;17927;52.350;13.402;2022-09-09T06:25:48;2.42;;;1.30;;
31298;SDS011;17927;52.350;13.402;2022-09-09T06:28:14;4.35;;;1.45;;
31298;SDS011;17927;52.350;13.402;2022-09-09T06:30:39;1.60;;;1.17;;
31298;SDS011;17927;52.350;13.402;2022-09-09T06:33:06;1.88;;;1.30;;
31298;SDS011;17927;52.350;13.402;2022-09-09T06:35:31;2.13;;;1.40;;
31298;SDS011;17927;52.350;13.402;2022-09-09T06:37:56;3.47;;;1.15;;
31298;SDS011;17927;52.350;13.402;2022-09-09T06:40:23;2.15;;;1.60;;
31298;SDS011;17927;52.350;13.402;2022-09-09T06:42:49;2.85;;;1.15;;
31298;SDS011;17927;52.350;13.402;2022-09-09T06:45:14;1.52;;;1.30;;
31298;SDS011;17927;52.350;13.402;2022-09-09T06:47:39;4.50;;;1.38;;
31298;SDS011;17927;52.350;13.402;2022-09-09T06:50:05;2.22;;;1.40;;
31298;SDS011;17927;52.350;13.402;2022-09-09T06:52:32;3.30;;;1.52;;
31298;SDS011;17927;52.350;13.402;2022-09-09T06:54:58;2.13;;;1.27;;
31298;SDS011;17927;52.350;13.402;2022-09-09T06:57:23;2.83;;;2.45;;
31298;SDS011;17927;52.350;13.402;2022-09-09T06:59:49;7.65;;;2.22;;
31298;SDS011;17927;52.350;13.402;2022-09-09T07:02:14;6.93;;;1.48;;
31298;SDS011;17927;52.350;13.402;2022-09-09T07:04:39;6.28;;;1.88;;
31298;SDS011;17927;52.350;13.402;2022-09-09T07:07:05;2.22;;;1.40;;
31298;SDS011;17927;52.350;13.402;2022-09-09T07:09:30;10.07;;;6.45;;
31298;SDS011;17927;52.350;13.402;2022-09-09T07:11:56;5.35;;;3.65;;
31298;SDS011;17927;52.350;13.402;2022-09-09T07:14:23;3.72;;;1.88;;
31298;SDS011;17927;52.350;13.402;2022-09-09T07:16:48;6.28;;;1.88;;
31298;SDS011;17927;52.350;13.402;2022-09-09T07:19:14;1.60;;;1.50;;
31298;SDS011;17927;52.350;13.402;2022-09-09T07:21:39;5.22;;;2.45;;
31298;SDS011;17927;52.350;13.402;2022-09-09T07:24:05;4.88;;;1.60;;
31298;SDS011;17927;52.350;13.402;2022-09-09T07:26:32;6.30;;;5.00;;
31298;SDS011;17927;52.350;13.402;2022-09-09T07:28:58;2.05;;;1.50;;
31298;SDS011;17927;52.350;13.402;2022-09-09T07:31:25;5.85;;;1.20;;
31298;SDS011;17927;52.350;13.402;2022-09-09T07:33:52;1.92;;;1.40;;
31298;SDS011;17927;52.350;13.402;2022-09-09T07:36:22;5.50;;;1.60;;
31298;SDS011;17927;52.350;13.402;2022-09-09T07:38:50;1.63;;;1.40;;
31298;SDS011;17927;52.350;13.402;2022-09-09T07:41:21;3.13;;;1.17;;
31298;SDS011;17927;52.350;13.402;2022-09-09T07:43:52;1.35;;;1.00;;
31298;SDS011;17927;52.350;13.402;2022-09-09T07:46:21;5.88;;;1.70;;
31298;SDS011;17927;52.350;13.402;2022-09-09T07:48:49;6.65;;;1.70;;
31298;SDS011;17927;52.350;13.402;2022-09-09T07:51:16;3.58;;;1.33;;
31298;SDS011;17927;52.350;13.402;2022-09-09T07:53:44;3.33;;;1.20;;
31298;SDS011;17927;52.350;13.402;2022-09-09T07:56:12;4.55;;;1.60;;
31298;SDS011;17927;52.350;13.402;2022-09-09T07:58:39;5.07;;;1.98;;
31298;SDS011;17927;52.350;13.402;2022-09-09T08:01:06;4.55;;;1.85;;
31298;SDS011;17927;52.350;13.402;2022-09-09T08:03:32;2.65;;;1.58;;
31298;SDS011;17927;52.350;13.402;2022-09-09T08:06:00;2.60;;;1.30;;
31298;SDS011;17927;52.350;13.402;2022-09-09T08:08:26;3.15;;;1.15;;
31298;SDS011;17927;52.350;13.402;2022-09-09T08:10:51;4.93;;;4.05;;
31298;SDS011;17927;52.350;13.402;2022-09-09T08:13:17;2.38;;;1.65;;
31298;SDS011;17927;52.350;13.402;2022-09-09T08:15:43;2.80;;;1.27;;
31298;SDS011;17927;52.350;13.402;2022-09-09T08:18:09;2.55;;;1.10;;
31298;SDS011;17927;52.350;13.402;2022-09-09T08:20:35;4.72;;;4.00;;
31298;SDS011;17927;52.350;13.402;2022-09-09T08:23:01;3.42;;;2.50;;
31298;SDS011;17927;52.350;13.402;2022-09-09T08:25:26;1.58;;;1.48;;
31298;SDS011;17927;52.350;13.402;2022-09-09T08:27:52;4.60;;;2.05;;
31298;SDS011;17927;52.350;13.402;2022-09-09T08:30:18;5.20;;;1.40;;
31298;SDS011;17927;52.350;13.402;2022-09-09T08:32:43;5.07;;;1.70;;
31298;SDS011;17927;52.350;13.402;2022-09-09T08:35:08;1.33;;;1.20;;
31298;SDS011;17927;52.350;13.402;2022-09-09T08:37:33;2.20;;;1.90;;
31298;SDS011;17927;52.350;13.402;2022-09-09T08:39:59;2.00;;;1.80;;
31298;SDS011;17927;52.350;13.402;2022-09-09T08:42:32;2.50;;;1.30;;
31298;SDS011;17927;52.350;13.402;2022-09-09T08:45:09;4.38;;;1.95;;
31298;SDS011;17927;52.350;13.402;2022-09-09T08:50:33;3.90;;;1.88;;
31298;SDS011;17927;52.350;13.402;2022-09-09T08:55:50;1.85;;;1.58;;
31298;SDS011;17927;52.350;13.402;2022-09-09T08:58:21;1.45;;;1.20;;
31298;SDS011;17927;52.350;13.402;2022-09-09T09:00:54;5.32;;;1.10;;
31298;SDS011;17927;52.350;13.402;2022-09-09T09:03:33;3.40;;;3.10;;
31298;SDS011;17927;52.350;13.402;2022-09-09T09:06:13;1.88;;;1.52;;
31298;SDS011;17927;52.350;13.402;2022-09-09T09:09:08;2.08;;;1.42;;
31298;SDS011;17927;52.350;13.402;2022-09-09T09:11:48;2.50;;;1.10;;
31298;SDS011;17927;52.350;13.402;2022-09-09T09:14:20;2.50;;;1.65;;
31298;SDS011;17927;52.350;13.402;2022-09-09T09:16:50;2.47;;;1.50;;
31298;SDS011;17927;52.350;13.402;2022-09-09T09:19:22;2.22;;;1.90;;
31298;SDS011;17927;52.350;13.402;2022-09-09T09:21:52;1.40;;;1.10;;
31298;SDS011;17927;52.350;13.402;2022-09-09T09:27:07;2.20;;;0.95;;
31298;SDS011;17927;52.350;13.402;2022-09-09T09:29:38;3.08;;;1.75;;
31298;SDS011;17927;52.350;13.402;2022-09-09T09:32:04;1.75;;;1.30;;
31298;SDS011;17927;52.350;13.402;2022-09-09T09:34:34;2.17;;;1.88;;
31298;SDS011;17927;52.350;13.402;2022-09-09T09:37:00;2.53;;;1.85;;
31298;SDS011;17927;52.350;13.402;2022-09-09T09:39:30;4.32;;;1.27;;
31298;SDS011;17927;52.350;13.402;2022-09-09T09:42:07;4.05;;;3.28;;
31298;SDS011;17927;52.350;13.402;2022-09-09T09:44:37;3.03;;;1.77;;
31298;SDS011;17927;52.350;13.402;2022-09-09T09:47:15;13.50;;;7.35;;
31298;SDS011;17927;52.350;13.402;2022-09-09T09:49:52;2.85;;;1.70;;
31298;SDS011;17927;52.350;13.402;2022-09-09T09:52:21;3.33;;;1.30;;
31298;SDS011;17927;52.350;13.402;2022-09-09T09:54:48;3.38;;;1.98;;
31298;SDS011;17927;52.350;13.402;2022-09-09T09:57:15;6.97;;;1.38;;
31298;SDS011;17927;52.350;13.402;2022-09-09T09:59:41;3.85;;;1.50;;
31298;SDS011;17927;52.350;13.402;2022-09-09T10:02:20;5.43;;;2.97;;
31298;SDS011;17927;52.350;13.402;2022-09-09T10:05:00;4.47;;;3.45;;
31298;SDS011;17927;52.350;13.402;2022-09-09T10:07:26;3.10;;;2.33;;
31298;SDS011;17927;52.350;13.402;2022-09-09T10:09:55;11.48;;;4.32;;
31298;SDS011;17927;52.350;13.402;2022-09-09T10:15:26;2.45;;;1.40;;
31298;SDS011;17927;52.350;13.402;2022-09-09T10:24:18;3.65;;;2.08;;
31298;SDS011;17927;52.350;13.402;2022-09-09T10:32:33;1.85;;;1.30;;
31298;SDS011;17927;52.350;13.402;2022-09-09T10:35:14;2.80;;;0.95;;
31298;SDS011;17927;52.350;13.402;2022-09-09T10:38:08;2.42;;;1.63;;
31298;SDS011;17927;52.350;13.402;2022-09-09T10:43:37;1.88;;;1.20;;
31298;SDS011;17927;52.350;13.402;2022-09-09T10:51:53;3.53;;;1.30;;
31298;SDS011;17927;52.350;13.402;2022-09-09T10:54:29;2.92;;;2.00;;
31298;SDS011;17927;52.350;13.402;2022-09-09T10:57:13;4.85;;;4.45;;
31298;SDS011;17927;52.350;13.402;2022-09-09T10:59:48;3.58;;;1.45;;
31298;SDS011;17927;52.350;13.402;2022-09-09T11:02:24;1.83;;;0.77;;
31298;SDS011;17927;52.350;13.402;2022-09-09T11:05:04;4.00;;;0.95;;
31298;SDS011;17927;52.350;13.402;2022-09-09T11:07:51;1.63;;;1.08;;
31298;SDS011;17927;52.350;13.402;2022-09-09T11:16:27;3.10;;;2.85;;
31298;SDS011;17927;52.350;13.402;2022-09-09T11:19:00;1.75;;;0.77;;
31298;SDS011;17927;52.350;13.402;2022-09-09T11:21:34;3.40;;;1.80;;
31298;SDS011;17927;52.350;13.402;2022-09-09T11:24:05;1.15;;;0.75;;
31298;SDS011;17927;52.350;13.402;2022-09-09T11:26:39;0.98;;;0.60;;
31298;SDS011;17927;52.350;13.402;2022-09-09T11:29:17;0.85;;;0.40;;
31298;SDS011;17927;52.350;13.402;2022-09-09T11:32:13;0.85;;;0.50;;
31298;SDS011;17927;52.350;13.402;2022-09-09T11:34:54;1.48;;;0.80;;
31298;SDS011;17927;52.350;13.402;2022-09-09T11:40:18;2.38;;;1.67;;
31298;SDS011;17927;52.350;13.402;2022-09-09T11:45:50;3.20;;;0.70;;
31298;SDS011;17927;52.350;13.402;2022-09-09T11:48:22;1.70;;;1.10;;
31298;SDS011;17927;52.350;13.402;2022-09-09T11:51:11;5.53;;;1.40;;
31298;SDS011;17927;52.350;13.402;2022-09-09T11:53:48;6.40;;;3.80;;
31298;SDS011;17927;52.350;13.402;2022-09-09T11:56:24;1.95;;;1.42;;
31298;SDS011;17927;52.350;13.402;2022-09-09T11:59:04;1.85;;;0.68;;
31298;SDS011;17927;52.350;13.402;2022-09-09T12:01:43;2.10;;;0.60;;
31298;SDS011;17927;52.350;13.402;2022-09-09T12:04:30;1.85;;;0.60;;
31298;SDS011;17927;52.350;13.402;2022-09-09T12:09:48;3.28;;;0.85;;
31298;SDS011;17927;52.350;13.402;2022-09-09T12:12:21;0.70;;;0.70;;
31298;SDS011;17927;52.350;13.402;2022-09-09T12:15:16;2.83;;;0.82;;
31298;SDS011;17927;52.350;13.402;2022-09-09T12:17:46;1.55;;;0.88;;
31298;SDS011;17927;52.350;13.402;2022-09-09T12:28:27;0.70;;;0.57;;
31298;SDS011;17927;52.350;13.402;2022-09-09T12:40:00;1.42;;;0.82;;
31298;SDS011;17927;52.350;13.402;2022-09-09T12:42:27;1.58;;;0.70;;
31298;SDS011;17927;52.350;13.402;2022-09-09T12:47:30;2.10;;;0.60;;
31298;SDS011;17927;52.350;13.402;2022-09-09T12:50:15;1.35;;;0.50;;
31298;SDS011;17927;52.350;13.402;2022-09-09T12:52:44;3.08;;;1.20;;
31298;SDS011;17927;52.350;13.402;2022-09-09T12:55:15;1.08;;;0.70;;
31298;SDS011;17927;52.350;13.402;2022-09-09T12:57:42;4.07;;;1.40;;
31298;SDS011;17927;52.350;13.402;2022-09-09T13:00:15;1.35;;;0.90;;
31298;SDS011;17927;52.350;13.402;2022-09-09T13:02:52;0.80;;;0.80;;
31298;SDS011;17927;52.350;13.402;2022-09-09T13:05:25;7.03;;;0.80;;
31298;SDS011;17927;52.350;13.402;2022-09-09T13:08:03;1.10;;;0.60;;
31298;SDS011;17927;52.350;13.402;2022-09-09T13:10:31;1.13;;;0.70;;
31298;SDS011;17927;52.350;13.402;2022-09-09T13:13:00;0.93;;;0.70;;
31298;SDS011;17927;52.350;13.402;2022-09-09T13:15:26;1.42;;;0.60;;
31298;SDS011;17927;52.350;13.402;2022-09-09T13:17:55;2.42;;;0.82;;
31298;SDS011;17927;52.350;13.402;2022-09-09T13:20:22;1.13;;;0.88;;
31298;SDS011;17927;52.350;13.402;2022-09-09T13:22:50;3.00;;;0.93;;
31298;SDS011;17927;52.350;13.402;2022-09-09T13:28:36;0.98;;;0.60;;
31298;SDS011;17927;52.350;13.402;2022-09-09T13:30:54;3.25;;;0.63;;
31298;SDS011;17927;52.350;13.402;2022-09-09T13:33:29;1.10;;;0.50;;
31298;SDS011;17927;52.350;13.402;2022-09-09T13:36:07;1.48;;;0.65;;
31298;SDS011;17927;52.350;13.402;2022-09-09T13:41:21;3.13;;;1.00;;
31298;SDS011;17927;52.350;13.402;2022-09-09T13:46:25;1.65;;;0.70;;
31298;SDS011;17927;52.350;13.402;2022-09-09T13:49:17;2.25;;;0.80;;
31298;SDS011;17927;52.350;13.402;2022-09-09T13:51:45;1.10;;;0.75;;
31298;SDS011;17927;52.350;13.402;2022-09-09T13:54:14;1.85;;;0.80;;
31298;SDS011;17927;52.350;13.402;2022-09-09T13:56:42;0.90;;;0.70;;
31298;SDS011;17927;52.350;13.402;2022-09-09T13:59:14;3.15;;;1.23;;
31298;SDS011;17927;52.350;13.402;2022-09-09T14:01:42;6.22;;;0.88;;
31298;SDS011;17927;52.350;13.402;2022-09-09T14:04:08;2.35;;;0.82;;
31298;SDS011;17927;52.350;13.402;2022-09-09T14:06:36;2.05;;;0.70;;
31298;SDS011;17927;52.350;13.402;2022-09-09T14:09:03;1.92;;;0.80;;
31298;SDS011;17927;52.350;13.402;2022-09-09T14:11:29;2.67;;;0.80;;
31298;SDS011;17927;52.350;13.402;2022-09-09T14:13:55;8.30;;;1.23;;
31298;SDS011;17927;52.350;13.402;2022-09-09T14:16:20;2.90;;;1.20;;
31298;SDS011;17927;52.350;13.402;2022-09-09T14:18:46;1.67;;;0.70;;
31298;SDS011;17927;52.350;13.402;2022-09-09T14:21:12;3.30;;;0.82;;
31298;SDS011;17927;52.350;13.402;2022-09-09T14:23:37;1.83;;;0.80;;
31298;SDS011;17927;52.350;13.402;2022-09-09T14:26:03;1.17;;;0.68;;
31298;SDS011;17927;52.350;13.402;2022-09-09T14:28:29;2.47;;;0.40;;
31298;SDS011;17927;52.350;13.402;2022-09-09T14:30:54;2.05;;;0.65;;
31298;SDS011;17927;52.350;13.402;2022-09-09T14:33:19;1.25;;;0.60;;
31298;SDS011;17927;52.350;13.402;2022-09-09T14:35:46;4.22;;;0.47;;
31298;SDS011;17927;52.350;13.402;2022-09-09T14:38:11;2.95;;;0.43;;
31298;SDS011;17927;52.350;13.402;2022-09-09T14:40:37;1.30;;;1.20;;
31298;SDS011;17927;52.350;13.402;2022-09-09T14:43:04;1.45;;;0.40;;
31298;SDS011;17927;52.350;13.402;2022-09-09T14:45:30;0.50;;;0.50;;
31298;SDS011;17927;52.350;13.402;2022-09-09T14:47:55;0.43;;;0.40;;
31298;SDS011;17927;52.350;13.402;2022-09-09T14:50:21;5.82;;;0.73;;
31298;SDS011;17927;52.350;13.402;2022-09-09T14:52:47;1.55;;;0.82;;
31298;SDS011;17927;52.350;13.402;2022-09-09T14:55:13;1.17;;;0.47;;
31298;SDS011;17927;52.350;13.402;2022-09-09T14:57:40;1.48;;;0.40;;
31298;SDS011;17927;52.350;13.402;2022-09-09T15:00:06;3.08;;;0.40;;
31298;SDS011;17927;52.350;13.402;2022-09-09T15:02:32;0.80;;;0.40;;
31298;SDS011;17927;52.350;13.402;2022-09-09T15:04:58;1.00;;;0.90;;
31298;SDS011;17927;52.350;13.402;2022-09-09T15:07:24;0.73;;;0.63;;
31298;SDS011;17927;52.350;13.402;2022-09-09T15:09:50;1.73;;;0.60;;
31298;SDS011;17927;52.350;13.402;2022-09-09T15:12:15;1.40;;;1.05;;
31298;SDS011;17927;52.350;13.402;2022-09-09T15:14:43;1.30;;;0.70;;
31298;SDS011;17927;52.350;13.402;2022-09-09T15:17:08;1.38;;;0.70;;
31298;SDS011;17927;52.350;13.402;2022-09-09T15:19:34;1.75;;;0.45;;
31298;SDS011;17927;52.350;13.402;2022-09-09T15:21:59;1.48;;;1.02;;
31298;SDS011;17927;52.350;13.402;2022-09-09T15:24:24;0.77;;;0.63;;
31298;SDS011;17927;52.350;13.402;2022-09-09T15:26:51;2.88;;;0.47;;
31298;SDS011;17927;52.350;13.402;2022-09-09T15:29:16;1.63;;;0.68;;
31298;SDS011;17927;52.350;13.402;2022-09-09T15:31:42;1.73;;;0.65;;
31298;SDS011;17927;52.350;13.402;2022-09-09T15:34:07;2.65;;;1.40;;
31298;SDS011;17927;52.350;13.402;2022-09-09T15:36:34;4.25;;;1.15;;
31298;SDS011;17927;52.350;13.402;2022-09-09T15:39:01;1.35;;;0.70;;
31298;SDS011;17927;52.350;13.402;2022-09-09T15:41:28;1.15;;;0.68;;
31298;SDS011;17927;52.350;13.402;2022-09-09T15:43:55;2.30;;;0.88;;
31298;SDS011;17927;52.350;13.402;2022-09-09T15:48:53;2.28;;;1.15;;
31298;SDS011;17927;52.350;13.402;2022-09-09T15:51:20;2.00;;;1.70;;
31298;SDS011;17927;52.350;13.402;2022-09-09T15:53:47;1.27;;;1.00;;
31298;SDS011;17927;52.350;13.402;2022-09-09T15:56:13;1.90;;;1.15;;
31298;SDS011;17927;52.350;13.402;2022-09-09T15:58:38;1.73;;;0.77;;
31298;SDS011;17927;52.350;13.402;2022-09-09T16:01:07;0.85;;;0.65;;
31298;SDS011;17927;52.350;13.402;2022-09-09T16:03:34;1.90;;;0.70;;
31298;SDS011;17927;52.350;13.402;2022-09-09T16:06:00;1.05;;;0.47;;
31298;SDS011;17927;52.350;13.402;2022-09-09T16:08:31;2.55;;;0.65;;
31298;SDS011;17927;52.350;13.402;2022-09-09T16:11:03;1.67;;;0.85;;
31298;SDS011;17927;52.350;13.402;2022-09-09T16:13:34;2.85;;;1.10;;
31298;SDS011;17927;52.350;13.402;2022-09-09T16:16:01;4.32;;;2.30;;
31298;SDS011;17927;52.350;13.402;2022-09-09T16:18:32;6.43;;;4.25;;
31298;SDS011;17927;52.350;13.402;2022-09-09T16:21:00;8.60;;;5.60;;
31298;SDS011;17927;52.350;13.402;2022-09-09T16:23:25;3.13;;;2.40;;
31298;SDS011;17927;52.350;13.402;2022-09-09T16:25:54;1.65;;;1.55;;
31298;SDS011;17927;52.350;13.402;2022-09-09T16:28:19;1.45;;;1.13;;
31298;SDS011;17927;52.350;13.402;2022-09-09T16:30:45;2.28;;;1.50;;
31298;SDS011;17927;52.350;13.402;2022-09-09T16:33:10;4.07;;;1.58;;
31298;SDS011;17927;52.350;13.402;2022-09-09T16:35:38;4.93;;;1.02;;
31298;SDS011;17927;52.350;13.402;2022-09-09T16:38:03;1.65;;;0.90;;
31298;SDS011;17927;52.350;13.402;2022-09-09T16:40:28;1.65;;;0.80;;
31298;SDS011;17927;52.350;13.402;2022-09-09T16:42:55;3.50;;;1.05;;
31298;SDS011;17927;52.350;13.402;2022-09-09T16:45:20;1.98;;;1.48;;